createdAt,value
2023-06-04T00:02:25.749Z,10.90
2023-06-04T00:04:53.259Z,10.90
2023-06-04T00:07:20.365Z,10.90
2023-06-04T00:09:48.224Z,10.90
2023-06-04T00:12:15.996Z,10.80
2023-06-04T00:14:46.140Z,10.80
2023-06-04T00:17:13.090Z,10.70
2023-06-04T00:19:41.642Z,10.70
2023-06-04T00:22:09.072Z,10.70
2023-06-04T00:24:38.501Z,10.70
2023-06-04T00:27:06.455Z,10.70
2023-06-04T00:29:33.413Z,10.60
2023-06-04T00:32:00.691Z,10.60
2023-06-04T00:34:27.906Z,10.50
2023-06-04T00:36:54.855Z,10.40
2023-06-04T00:39:21.845Z,10.30
2023-06-04T00:41:48.815Z,10.30
2023-06-04T00:44:15.746Z,10.30
2023-06-04T00:46:46.598Z,10.20
2023-06-04T00:49:14.882Z,10.20
2023-06-04T00:51:42.081Z,10.20
2023-06-04T00:54:12.914Z,10.20
2023-06-04T00:56:41.207Z,10.10
2023-06-04T00:59:10.748Z,10.10
2023-06-04T01:01:41.839Z,10.00
2023-06-04T01:04:16.476Z,10.00
2023-06-04T01:06:46.417Z,9.90
2023-06-04T01:09:14.985Z,9.80
2023-06-04T01:11:42.054Z,9.70
2023-06-04T01:14:10.635Z,9.70
2023-06-04T01:16:43.469Z,9.70
2023-06-04T01:19:31.285Z,9.70
2023-06-04T01:22:04.426Z,9.60
2023-06-04T01:24:37.679Z,9.60
2023-06-04T01:27:07.191Z,9.60
2023-06-04T01:29:37.352Z,9.50
2023-06-04T01:32:05.820Z,9.50
2023-06-04T01:34:44.970Z,9.50
2023-06-04T01:37:12.692Z,9.40
2023-06-04T01:39:39.692Z,9.30
2023-06-04T01:42:07.049Z,9.40
2023-06-04T01:44:34.038Z,9.50
2023-06-04T01:47:01.239Z,9.50
2023-06-04T01:49:28.926Z,9.60
2023-06-04T01:51:57.502Z,9.60
2023-06-04T01:54:24.440Z,9.60
2023-06-04T01:56:51.458Z,9.60
2023-06-04T01:59:18.402Z,9.60
2023-06-04T02:01:45.388Z,9.70
2023-06-04T02:04:12.348Z,9.70
2023-06-04T02:06:39.327Z,9.70
2023-06-04T02:09:06.429Z,9.70
2023-06-04T02:11:34.766Z,9.70
2023-06-04T02:14:01.675Z,9.70
2023-06-04T02:16:28.786Z,9.70
2023-06-04T02:18:55.803Z,9.60
2023-06-04T02:21:22.752Z,9.60
2023-06-04T02:23:50.979Z,9.50
2023-06-04T02:26:20.700Z,9.50
2023-06-04T02:28:48.966Z,9.50
2023-06-04T02:31:20.611Z,9.40
2023-06-04T02:33:47.644Z,9.20
2023-06-04T02:36:14.564Z,9.00
2023-06-04T02:38:41.441Z,8.90
2023-06-04T02:41:08.743Z,8.90
2023-06-04T02:43:36.103Z,8.90
2023-06-04T02:46:03.257Z,8.90
2023-06-04T02:48:30.321Z,8.80
2023-06-04T02:50:57.848Z,8.80
2023-06-04T02:53:24.860Z,8.80
2023-06-04T02:55:54.471Z,8.80
2023-06-04T02:58:22.801Z,8.70
2023-06-04T03:00:49.796Z,8.70
2023-06-04T03:03:16.908Z,8.60
2023-06-04T03:05:44.127Z,8.60
2023-06-04T03:08:11.238Z,8.50
2023-06-04T03:10:38.203Z,8.40
2023-06-04T03:13:05.579Z,8.40
2023-06-04T03:15:32.550Z,8.40
2023-06-04T03:18:00.753Z,8.40
2023-06-04T03:20:27.752Z,8.30
2023-06-04T03:22:54.696Z,8.30
2023-06-04T03:25:21.661Z,8.20
2023-06-04T03:27:48.721Z,8.20
2023-06-04T03:30:15.909Z,8.20
2023-06-04T03:32:45.231Z,8.30
2023-06-04T03:35:12.213Z,8.30
2023-06-04T03:37:39.141Z,8.30
2023-06-04T03:40:09.909Z,8.40
2023-06-04T03:42:36.829Z,8.40
2023-06-04T03:45:03.972Z,8.40
2023-06-04T03:47:31.394Z,8.40
2023-06-04T03:49:58.328Z,8.60
2023-06-04T03:52:25.334Z,8.90
2023-06-04T03:54:52.246Z,9.70
2023-06-04T03:57:19.496Z,10.60
2023-06-04T03:59:46.455Z,11.50
2023-06-04T04:02:13.465Z,12.20
2023-06-04T04:04:42.084Z,12.90
2023-06-04T04:07:14.466Z,13.50
2023-06-04T04:09:41.395Z,14.20
2023-06-04T04:12:08.578Z,14.80
2023-06-04T04:14:35.637Z,15.40
2023-06-04T04:17:04.897Z,15.90
2023-06-04T04:19:32.107Z,16.20
2023-06-04T04:21:59.127Z,16.80
2023-06-04T04:24:28.112Z,17.10
2023-06-04T04:26:55.840Z,17.00
2023-06-04T04:29:23.874Z,17.40
2023-06-04T04:31:54.697Z,18.20
2023-06-04T04:34:22.215Z,18.70
2023-06-04T04:36:53.473Z,19.30
2023-06-04T04:39:29.719Z,19.30
2023-06-04T04:41:56.910Z,19.50
2023-06-04T04:44:23.847Z,19.70
2023-06-04T04:46:51.011Z,19.90
2023-06-04T04:49:17.978Z,20.10
2023-06-04T04:51:44.868Z,20.20
2023-06-04T04:54:11.881Z,20.40
2023-06-04T04:56:38.808Z,20.80
2023-06-04T04:59:05.852Z,20.90
2023-06-04T05:01:32.814Z,21.00
2023-06-04T05:04:01.246Z,21.30
2023-06-04T05:06:29.902Z,21.60
2023-06-04T05:08:56.871Z,21.40
2023-06-04T05:11:23.834Z,21.20
2023-06-04T05:13:50.866Z,21.10
2023-06-04T05:16:21.833Z,21.20
2023-06-04T05:18:49.210Z,20.80
2023-06-04T05:21:16.210Z,20.80
2023-06-04T05:23:43.626Z,20.50
2023-06-04T05:26:10.636Z,19.90
2023-06-04T05:28:37.572Z,19.90
2023-06-04T05:31:05.784Z,20.00
2023-06-04T05:33:33.181Z,19.80
2023-06-04T05:36:00.265Z,19.30
2023-06-04T05:38:27.494Z,19.20
2023-06-04T05:40:57.801Z,19.20
2023-06-04T05:43:25.105Z,19.20
2023-06-04T05:45:52.855Z,19.30
2023-06-04T05:48:19.973Z,19.00
2023-06-04T05:50:48.606Z,19.10
2023-06-04T05:53:15.704Z,19.10
2023-06-04T05:55:42.851Z,19.80
2023-06-04T05:58:09.792Z,20.00
2023-06-04T06:00:36.760Z,20.00
2023-06-04T06:03:04.129Z,20.20
2023-06-04T06:05:31.327Z,20.50
2023-06-04T06:07:58.510Z,21.20
2023-06-04T06:10:25.669Z,21.40
2023-06-04T06:12:53.642Z,21.70
2023-06-04T06:15:20.593Z,21.90
2023-06-04T06:17:47.617Z,21.70
2023-06-04T06:20:19.211Z,21.80
2023-06-04T06:22:46.474Z,21.40
2023-06-04T06:25:17.136Z,21.40
2023-06-04T06:27:44.181Z,21.30
2023-06-04T06:30:11.880Z,21.30
2023-06-04T06:32:39.538Z,21.00
2023-06-04T06:35:07.015Z,20.90
2023-06-04T06:37:34.024Z,21.30
2023-06-04T06:40:01.190Z,21.50
2023-06-04T06:42:35.102Z,21.20
2023-06-04T06:45:02.254Z,21.30
2023-06-04T06:47:29.355Z,21.40
2023-06-04T06:49:56.530Z,21.50
2023-06-04T06:52:23.466Z,21.20
2023-06-04T06:54:50.459Z,21.50
2023-06-04T06:57:18.155Z,21.40
2023-06-04T06:59:46.308Z,21.40
2023-06-04T07:02:13.318Z,21.60
2023-06-04T07:04:40.339Z,21.60
2023-06-04T07:07:08.449Z,21.40
2023-06-04T07:09:35.882Z,20.90
2023-06-04T07:12:02.824Z,20.90
2023-06-04T07:14:29.852Z,21.20
2023-06-04T07:16:56.770Z,21.30
2023-06-04T07:19:23.756Z,21.40
2023-06-04T07:21:51.654Z,21.00
2023-06-04T07:24:18.660Z,20.80
2023-06-04T07:26:45.947Z,21.00
2023-06-04T07:29:13.302Z,21.20
2023-06-04T07:31:40.497Z,21.60
2023-06-04T07:34:07.529Z,22.00
2023-06-04T07:36:34.562Z,22.50
2023-06-04T07:39:01.741Z,23.40
2023-06-04T07:41:28.666Z,23.50
2023-06-04T07:43:55.635Z,23.10
2023-06-04T07:46:22.548Z,23.10
2023-06-04T07:48:49.535Z,23.40
2023-06-04T07:51:18.697Z,23.40
2023-06-04T07:53:46.141Z,23.20
2023-06-04T07:56:13.179Z,23.00
2023-06-04T07:58:40.285Z,22.80
2023-06-04T08:01:07.604Z,23.30
2023-06-04T08:03:35.581Z,23.90
2023-06-04T08:06:04.534Z,24.20
2023-06-04T08:08:32.363Z,23.70
2023-06-04T08:10:59.509Z,24.00
2023-06-04T08:13:27.168Z,24.30
2023-06-04T08:15:54.261Z,24.90
2023-06-04T08:18:21.264Z,24.80
2023-06-04T08:20:48.266Z,24.50
2023-06-04T08:23:15.321Z,24.40
2023-06-04T08:25:42.349Z,24.20
2023-06-04T08:28:09.428Z,24.70
2023-06-04T08:30:37.402Z,25.30
2023-06-04T08:33:04.917Z,25.20
2023-06-04T08:35:32.045Z,25.10
2023-06-04T08:38:00.147Z,25.10
2023-06-04T08:40:27.323Z,24.60
2023-06-04T08:42:59.372Z,24.80
2023-06-04T08:45:29.168Z,25.50
2023-06-04T08:47:58.262Z,25.50
2023-06-04T08:50:26.358Z,25.60
2023-06-04T08:52:57.177Z,25.40
2023-06-04T08:55:24.607Z,25.70
2023-06-04T08:57:52.822Z,26.40
2023-06-04T09:00:20.269Z,26.40
2023-06-04T09:02:48.508Z,26.40
2023-06-04T09:05:23.913Z,26.30
2023-06-04T09:07:55.357Z,25.90
2023-06-04T09:10:24.629Z,25.50
2023-06-04T09:12:53.087Z,24.50
2023-06-04T09:15:20.050Z,24.20
2023-06-04T09:17:47.026Z,24.50
2023-06-04T09:20:24.338Z,25.30
2023-06-04T09:22:52.012Z,25.70
2023-06-04T09:25:26.874Z,25.30
2023-06-04T09:27:56.623Z,24.70
2023-06-04T09:30:25.218Z,24.40
2023-06-04T09:32:54.786Z,24.50
2023-06-04T09:35:22.036Z,24.40
2023-06-04T09:37:58.598Z,24.80
2023-06-04T09:40:26.400Z,25.30
2023-06-04T09:42:56.737Z,25.50
2023-06-04T09:45:32.223Z,25.40
2023-06-04T09:48:00.448Z,24.40
2023-06-04T09:50:28.982Z,24.20
2023-06-04T09:52:56.487Z,24.20
2023-06-04T09:55:23.897Z,24.00
2023-06-04T09:57:52.139Z,23.80
2023-06-04T10:00:24.263Z,23.50
2023-06-04T10:03:02.704Z,23.60
2023-06-04T10:05:33.742Z,23.80
2023-06-04T10:08:04.792Z,23.80
2023-06-04T10:10:35.114Z,23.70
2023-06-04T10:13:08.098Z,23.90
2023-06-04T10:15:36.825Z,23.60
2023-06-04T10:18:05.121Z,23.70
2023-06-04T10:20:33.175Z,23.50
2023-06-04T10:23:01.334Z,23.60
2023-06-04T10:25:29.844Z,23.80
2023-06-04T10:27:57.447Z,23.80
2023-06-04T10:30:25.097Z,23.90
2023-06-04T10:32:52.523Z,23.80
2023-06-04T10:35:30.006Z,23.50
2023-06-04T10:38:10.048Z,23.20
2023-06-04T10:40:39.013Z,23.20
2023-06-04T10:43:17.243Z,23.40
2023-06-04T10:45:44.435Z,23.60
2023-06-04T10:48:13.622Z,23.80
2023-06-04T10:50:54.430Z,24.00
2023-06-04T10:53:21.590Z,23.90
2023-06-04T10:55:49.663Z,23.40
2023-06-04T10:58:19.182Z,23.30
2023-06-04T11:00:50.231Z,22.90
2023-06-04T11:03:18.044Z,22.90
2023-06-04T11:05:47.121Z,23.30
2023-06-04T11:08:15.581Z,23.80
2023-06-04T11:10:45.357Z,23.70
2023-06-04T11:13:12.372Z,24.00
2023-06-04T11:15:45.059Z,24.40
2023-06-04T11:18:30.391Z,24.30
2023-06-04T11:21:03.622Z,24.20
2023-06-04T11:23:30.900Z,24.20
2023-06-04T11:25:59.505Z,23.90
2023-06-04T11:28:26.581Z,24.00
2023-06-04T11:31:04.802Z,24.00
2023-06-04T11:33:42.785Z,23.90
2023-06-04T11:36:10.090Z,24.00
2023-06-04T11:38:37.019Z,24.20
2023-06-04T11:41:06.300Z,24.30
2023-06-04T11:43:34.065Z,24.20
2023-06-04T11:46:06.992Z,24.30
2023-06-04T11:48:38.431Z,23.80
2023-06-04T11:51:11.934Z,24.00
2023-06-04T11:53:39.479Z,24.20
2023-06-04T11:56:07.257Z,24.30
2023-06-04T11:58:34.662Z,24.40
2023-06-04T12:01:01.906Z,24.40
2023-06-04T12:03:42.690Z,24.60
2023-06-04T12:06:22.217Z,24.30
2023-06-04T12:08:55.837Z,23.60
2023-06-04T12:11:49.190Z,23.20
2023-06-04T12:14:20.130Z,23.10
2023-06-04T12:17:09.685Z,23.20
2023-06-04T12:19:49.586Z,23.50
2023-06-04T12:22:16.502Z,23.40
2023-06-04T12:24:54.918Z,23.30
2023-06-04T12:27:24.443Z,23.40
2023-06-04T12:30:02.781Z,23.30
2023-06-04T12:32:32.597Z,23.30
2023-06-04T12:34:59.802Z,23.20
2023-06-04T12:37:27.030Z,23.20
2023-06-04T12:39:54.665Z,23.20
2023-06-04T12:42:21.864Z,23.10
2023-06-04T12:44:49.118Z,23.10
2023-06-04T12:47:18.088Z,23.00
2023-06-04T12:49:46.614Z,23.00
2023-06-04T12:52:15.379Z,22.60
2023-06-04T12:54:43.834Z,22.50
2023-06-04T12:57:10.938Z,22.60
2023-06-04T12:59:37.967Z,22.70
2023-06-04T13:02:05.041Z,22.90
2023-06-04T13:04:32.066Z,23.10
2023-06-04T13:07:00.581Z,22.90
2023-06-04T13:09:29.630Z,22.80
2023-06-04T13:11:56.994Z,22.80
2023-06-04T13:14:24.004Z,22.90
2023-06-04T13:16:52.836Z,23.00
2023-06-04T13:19:22.811Z,22.80
2023-06-04T13:21:50.487Z,22.60
2023-06-04T13:24:17.606Z,22.60
2023-06-04T13:26:44.619Z,22.60
2023-06-04T13:29:12.075Z,22.50
2023-06-04T13:31:41.224Z,22.60
2023-06-04T13:34:25.538Z,22.60
2023-06-04T13:36:54.623Z,22.60
2023-06-04T13:39:21.988Z,22.50
2023-06-04T13:41:49.018Z,22.50
2023-06-04T13:44:16.142Z,22.30
2023-06-04T13:46:43.680Z,22.30
2023-06-04T13:49:10.821Z,22.40
2023-06-04T13:51:37.731Z,22.60
2023-06-04T13:54:06.055Z,22.60
2023-06-04T13:56:36.263Z,22.50
2023-06-04T13:59:03.433Z,22.50
2023-06-04T14:01:31.400Z,22.60
2023-06-04T14:03:59.984Z,22.60
2023-06-04T14:06:27.568Z,22.70
2023-06-04T14:08:54.555Z,22.60
2023-06-04T14:11:21.758Z,22.60
2023-06-04T14:13:49.078Z,22.60
2023-06-04T14:16:16.158Z,22.60
2023-06-04T14:18:43.094Z,22.80
2023-06-04T14:21:10.165Z,22.60
2023-06-04T14:23:37.280Z,22.60
2023-06-04T14:26:04.307Z,22.50
2023-06-04T14:28:31.316Z,22.60
2023-06-04T14:30:59.682Z,22.60
2023-06-04T14:33:26.643Z,22.60
2023-06-04T14:35:53.677Z,22.70
2023-06-04T14:38:20.741Z,22.70
2023-06-04T14:40:47.684Z,22.80
2023-06-04T14:43:14.700Z,22.70
2023-06-04T14:45:42.025Z,22.50
2023-06-04T14:48:15.700Z,22.50
2023-06-04T14:50:44.592Z,22.60
2023-06-04T14:53:13.199Z,22.70
2023-06-04T14:55:40.754Z,22.80
2023-06-04T14:58:08.062Z,22.70
2023-06-04T15:00:35.134Z,22.60
2023-06-04T15:03:03.937Z,22.70
2023-06-04T15:05:35.896Z,22.60
2023-06-04T15:08:04.346Z,22.50
2023-06-04T15:10:31.415Z,22.50
2023-06-04T15:12:58.567Z,22.40
2023-06-04T15:15:26.274Z,22.50
2023-06-04T15:17:53.604Z,22.50
2023-06-04T15:20:20.811Z,22.40
2023-06-04T15:22:48.642Z,22.40
2023-06-04T15:25:15.690Z,22.30
2023-06-04T15:27:42.680Z,22.30
2023-06-04T15:30:10.592Z,22.40
2023-06-04T15:32:38.339Z,22.30
2023-06-04T15:35:05.835Z,22.30
2023-06-04T15:37:32.883Z,22.30
2023-06-04T15:40:01.050Z,22.40
2023-06-04T15:42:29.336Z,22.40
2023-06-04T15:44:56.259Z,22.40
2023-06-04T15:47:23.346Z,22.40
2023-06-04T15:49:50.379Z,22.40
2023-06-04T15:52:17.540Z,22.40
2023-06-04T15:54:47.009Z,22.40
2023-06-04T15:57:14.902Z,22.30
2023-06-04T15:59:42.600Z,22.40
2023-06-04T16:02:09.798Z,22.40
2023-06-04T16:04:36.976Z,22.40
2023-06-04T16:07:06.104Z,22.40
2023-06-04T16:09:34.400Z,22.50
2023-06-04T16:12:01.406Z,22.40
2023-06-04T16:14:28.445Z,22.40
2023-06-04T16:16:55.580Z,22.50
2023-06-04T16:19:22.747Z,22.50
2023-06-04T16:21:49.715Z,22.50
2023-06-04T16:24:17.624Z,22.50
2023-06-04T16:26:44.639Z,22.40
2023-06-04T16:29:11.739Z,22.20
2023-06-04T16:31:39.091Z,22.20
2023-06-04T16:34:06.158Z,22.30
2023-06-04T16:36:34.247Z,22.30
2023-06-04T16:39:01.544Z,22.20
2023-06-04T16:41:28.759Z,22.20
2023-06-04T16:43:55.969Z,22.20
2023-06-04T16:46:24.291Z,22.20
2023-06-04T16:48:51.242Z,22.20
2023-06-04T16:51:18.108Z,22.20
2023-06-04T16:53:45.085Z,22.20
2023-06-04T16:56:12.110Z,22.10
2023-06-04T16:58:40.668Z,22.00
2023-06-04T17:01:11.262Z,22.00
2023-06-04T17:03:38.750Z,22.00
2023-06-04T17:06:06.647Z,22.10
2023-06-04T17:08:33.890Z,22.10
2023-06-04T17:11:00.969Z,22.10
2023-06-04T17:13:28.081Z,21.90
2023-06-04T17:15:55.189Z,21.90
2023-06-04T17:18:22.223Z,21.90
2023-06-04T17:20:49.211Z,21.90
2023-06-04T17:23:26.838Z,21.90
2023-06-04T17:25:54.433Z,21.90
2023-06-04T17:28:21.527Z,21.90
2023-06-04T17:30:49.234Z,21.90
2023-06-04T17:33:16.466Z,21.90
2023-06-04T17:35:43.631Z,21.80
2023-06-04T17:38:10.758Z,21.70
2023-06-04T17:40:37.943Z,21.70
2023-06-04T17:43:05.086Z,21.70
2023-06-04T17:45:33.374Z,21.60
2023-06-04T17:48:00.592Z,21.60
2023-06-04T17:50:27.836Z,21.60
2023-06-04T17:52:54.940Z,21.50
2023-06-04T17:55:22.072Z,21.50
2023-06-04T17:57:49.324Z,21.50
2023-06-04T18:00:17.103Z,21.40
2023-06-04T18:02:44.534Z,21.40
2023-06-04T18:05:11.783Z,21.40
2023-06-04T18:07:38.768Z,21.30
2023-06-04T18:10:08.037Z,21.30
2023-06-04T18:12:36.881Z,21.20
2023-06-04T18:15:05.394Z,21.20
2023-06-04T18:17:32.829Z,21.20
2023-06-04T18:19:59.890Z,21.10
2023-06-04T18:22:26.947Z,21.10
2023-06-04T18:24:54.566Z,21.00
2023-06-04T18:27:22.517Z,21.00
2023-06-04T18:29:50.370Z,20.90
2023-06-04T18:32:18.559Z,20.80
2023-06-04T18:34:46.356Z,20.70
2023-06-04T18:37:13.361Z,20.70
2023-06-04T18:39:41.191Z,20.60
2023-06-04T18:42:18.221Z,20.60
2023-06-04T18:44:58.074Z,20.50
2023-06-04T18:47:25.348Z,20.50
2023-06-04T18:49:52.436Z,20.40
2023-06-04T18:52:19.389Z,20.40
2023-06-04T18:54:46.588Z,20.40
2023-06-04T18:57:14.762Z,20.30
2023-06-04T18:59:41.974Z,20.30
2023-06-04T19:02:08.979Z,20.30
2023-06-04T19:04:35.980Z,20.20
2023-06-04T19:07:03.979Z,20.10
2023-06-04T19:09:31.396Z,20.10
2023-06-04T19:11:58.494Z,20.00
2023-06-04T19:14:26.235Z,19.90
2023-06-04T19:16:53.296Z,19.90
2023-06-04T19:19:21.290Z,19.80
2023-06-04T19:21:53.482Z,19.80
2023-06-04T19:24:24.356Z,19.70
2023-06-04T19:26:52.151Z,19.70
2023-06-04T19:29:19.837Z,19.60
2023-06-04T19:31:47.934Z,19.50
2023-06-04T19:34:15.035Z,19.40
2023-06-04T19:36:42.045Z,19.40
2023-06-04T19:39:09.014Z,19.30
2023-06-04T19:41:36.182Z,19.20
2023-06-04T19:44:03.691Z,19.10
2023-06-04T19:46:31.821Z,19.00
2023-06-04T19:49:00.033Z,18.90
2023-06-04T19:51:28.432Z,18.80
2023-06-04T19:53:57.070Z,18.70
2023-06-04T19:56:24.107Z,18.70
2023-06-04T19:58:51.098Z,18.60
2023-06-04T20:01:18.734Z,18.50
2023-06-04T20:03:45.910Z,18.40
2023-06-04T20:06:12.902Z,18.30
2023-06-04T20:08:39.896Z,18.30
2023-06-04T20:11:06.953Z,18.20
2023-06-04T20:13:33.962Z,18.20
2023-06-04T20:16:01.393Z,18.10
2023-06-04T20:18:30.122Z,18.10
2023-06-04T20:20:57.090Z,18.00
2023-06-04T20:23:24.042Z,17.90
2023-06-04T20:25:52.110Z,17.80
2023-06-04T20:28:20.234Z,17.70
2023-06-04T20:30:47.454Z,17.70
2023-06-04T20:33:14.439Z,17.50
2023-06-04T20:35:41.686Z,17.40
2023-06-04T20:38:08.647Z,17.30
2023-06-04T20:40:35.649Z,17.30
2023-06-04T20:43:02.614Z,17.20
2023-06-04T20:48:10.492Z,17.10
2023-06-04T20:50:37.461Z,17.10
2023-06-04T20:53:06.966Z,17.10
2023-06-04T20:55:36.230Z,17.10
2023-06-04T20:58:03.413Z,17.20
2023-06-04T21:00:30.516Z,17.20
2023-06-04T21:02:57.609Z,17.20
2023-06-04T21:05:24.593Z,17.20
2023-06-04T21:07:51.983Z,17.10
2023-06-04T21:10:19.046Z,17.00
2023-06-04T21:12:46.016Z,16.90
2023-06-04T21:15:12.999Z,16.90
2023-06-04T21:17:40.035Z,16.90
2023-06-04T21:20:07.823Z,16.80
2023-06-04T21:22:34.850Z,16.80
2023-06-04T21:25:01.969Z,16.80
2023-06-04T21:27:28.981Z,16.70
2023-06-04T21:29:55.939Z,16.70
2023-06-04T21:32:23.260Z,16.60
2023-06-04T21:34:50.317Z,16.60
2023-06-04T21:37:17.256Z,16.60
2023-06-04T21:39:44.308Z,16.50
2023-06-04T21:42:11.568Z,16.40
2023-06-04T21:44:38.537Z,16.30
2023-06-04T21:47:06.193Z,16.20
2023-06-04T21:49:33.277Z,16.20
2023-06-04T21:52:05.217Z,16.10
2023-06-04T21:54:34.731Z,16.00
2023-06-04T21:57:01.697Z,16.00
2023-06-04T21:59:29.849Z,16.00
2023-06-04T22:01:58.155Z,16.00
2023-06-04T22:04:25.444Z,15.90
2023-06-04T22:06:52.469Z,15.90
2023-06-04T22:09:19.431Z,15.80
2023-06-04T22:11:46.927Z,15.70
2023-06-04T22:14:14.160Z,15.60
2023-06-04T22:16:41.169Z,15.60
2023-06-04T22:19:08.146Z,15.60
2023-06-04T22:21:35.085Z,15.50
2023-06-04T22:24:03.616Z,15.40
2023-06-04T22:29:03.365Z,15.30
2023-06-04T22:31:30.864Z,15.30
2023-06-04T22:33:58.189Z,15.20
2023-06-04T22:36:25.263Z,15.10
2023-06-04T22:38:53.669Z,15.10
2023-06-04T22:41:20.711Z,15.10
2023-06-04T22:43:47.692Z,15.10
2023-06-04T22:46:14.709Z,15.00
2023-06-04T22:48:42.102Z,15.00
2023-06-04T22:51:09.516Z,14.90
2023-06-04T22:53:36.857Z,14.80
2023-06-04T22:56:07.760Z,14.70
2023-06-04T22:58:34.954Z,14.60
2023-06-04T23:01:02.437Z,14.60
2023-06-04T23:03:29.549Z,14.50
2023-06-04T23:05:56.655Z,14.50
2023-06-04T23:08:23.750Z,14.40
2023-06-04T23:10:51.535Z,14.40
2023-06-04T23:13:18.711Z,14.40
2023-06-04T23:15:45.738Z,14.30
2023-06-04T23:18:12.893Z,14.20
2023-06-04T23:20:40.028Z,14.20
2023-06-04T23:23:06.928Z,14.10
2023-06-04T23:25:34.108Z,14.10
2023-06-04T23:28:01.057Z,14.00
2023-06-04T23:30:28.225Z,13.90
2023-06-04T23:32:55.320Z,13.80
2023-06-04T23:35:22.333Z,13.70
2023-06-04T23:37:49.455Z,13.70
2023-06-04T23:40:16.413Z,13.60
2023-06-04T23:42:43.442Z,13.60
2023-06-04T23:45:13.043Z,13.50
2023-06-04T23:47:40.066Z,13.50
2023-06-04T23:50:07.730Z,13.40
2023-06-04T23:52:34.902Z,13.40
2023-06-04T23:55:01.872Z,13.30
2023-06-04T23:57:28.843Z,13.20
2023-06-04T23:59:55.835Z,13.20
